Orbital elements of COSMOS 970 DEB
| Launched | 20 December 1977 |
| Flight ended | – |
| Launch site | Tyuratam Missile and Space Center, Kazakhstan (Also known as Baikonur Cosmodrome) |
| Owner | Commonwealth of Independent States (former USSR) |
| NORAD ID | 12869 |
| Date fetched |
Epoch osculation |
Inc. [°] |
Ecc. | RA asc node [hr] |
Arg Peri. [°] |
Mean anom [°] |
Mean motion [rev/day] |
Abs. mag |
| Date fetched |
Epoch osculation |
Inc. [°] |
Ecc. | RA asc node [hr] |
Arg Peri. [°] |
Mean anom [°] |
Mean motion [rev/day] |
Abs. mag |
| 2026 May 03 17:57 | 2026 Apr 30 06:48:43 | 65.7902 | 0.00937 | 3.4171 | 323.3714 | 115.4763 | 13.77317 | – |
| 2026 May 02 17:57 | 2026 Apr 30 06:48:43 | 65.7902 | 0.00937 | 3.4171 | 323.3714 | 115.4763 | 13.77317 | – |
| 2026 May 01 17:56 | 2026 Apr 30 06:48:43 | 65.7902 | 0.00937 | 3.4171 | 323.3714 | 115.4763 | 13.77317 | – |
| 2026 Apr 30 17:56 | 2026 Apr 30 06:48:43 | 65.7902 | 0.00937 | 3.4171 | 323.3714 | 115.4763 | 13.77317 | – |
| 2026 Apr 29 17:57 | 2026 Apr 22 07:04:45 | 65.7891 | 0.00934 | 4.7404 | 326.8090 | 115.4763 | 13.77317 | – |
| 2026 Apr 28 17:56 | 2026 Apr 22 07:04:45 | 65.7891 | 0.00934 | 4.7404 | 326.8090 | 115.4763 | 13.77317 | – |
| 2026 Apr 27 17:58 | 2026 Apr 22 07:04:45 | 65.7891 | 0.00934 | 4.7404 | 326.8090 | 115.4763 | 13.77317 | – |
| 2026 Apr 26 17:58 | 2026 Apr 22 07:04:45 | 65.7891 | 0.00934 | 4.7404 | 326.8090 | 115.4763 | 13.77317 | – |
| 2026 Apr 25 17:58 | 2026 Apr 22 07:04:45 | 65.7891 | 0.00934 | 4.7404 | 326.8090 | 115.4763 | 13.77317 | – |
| 2026 Apr 24 17:59 | 2026 Apr 22 07:04:45 | 65.7891 | 0.00934 | 4.7404 | 326.8090 | 115.4763 | 13.77317 | – |
| 2026 Apr 23 17:57 | 2026 Apr 18 05:14:13 | 65.7885 | 0.00932 | 5.4158 | 328.5522 | 115.4763 | 13.77317 | – |
| 2026 Apr 22 17:57 | 2026 Apr 18 05:14:13 | 65.7885 | 0.00932 | 5.4158 | 328.5522 | 115.4763 | 13.77317 | – |
| 2026 Apr 21 17:57 | 2026 Apr 18 05:14:13 | 65.7885 | 0.00932 | 5.4158 | 328.5522 | 115.4763 | 13.77317 | – |
| 2026 Apr 20 17:57 | 2026 Apr 18 05:14:13 | 65.7885 | 0.00932 | 5.4158 | 328.5522 | 115.4763 | 13.77317 | – |
| 2026 Apr 19 17:58 | 2026 Apr 18 05:14:13 | 65.7885 | 0.00932 | 5.4158 | 328.5522 | 115.4763 | 13.77317 | – |
| 2026 Apr 18 17:56 | 2026 Apr 12 23:49:20 | 65.7876 | 0.00929 | 6.2815 | 330.8275 | 115.4763 | 13.77317 | – |
| 2026 Apr 16 17:57 | 2026 Apr 12 23:49:20 | 65.7876 | 0.00929 | 6.2815 | 330.8275 | 115.4763 | 13.77317 | – |
| 2026 Apr 14 17:57 | 2026 Apr 12 23:49:20 | 65.7876 | 0.00929 | 6.2815 | 330.8275 | 115.4763 | 13.77317 | – |
| 2026 Apr 13 17:57 | 2026 Apr 12 23:49:20 | 65.7876 | 0.00929 | 6.2815 | 330.8275 | 115.4763 | 13.77317 | – |
| 2026 Apr 12 17:57 | 2026 Apr 08 10:36:02 | 65.7874 | 0.00925 | 7.0354 | 332.8574 | 115.4763 | 13.77317 | – |
| 2026 Apr 11 17:57 | 2026 Apr 08 10:36:02 | 65.7874 | 0.00925 | 7.0354 | 332.8574 | 115.4763 | 13.77317 | – |
| 2026 Apr 10 17:58 | 2026 Apr 08 10:36:02 | 65.7874 | 0.00925 | 7.0354 | 332.8574 | 115.4763 | 13.77317 | – |
| 2026 Apr 09 18:01 | 2026 Apr 08 10:36:02 | 65.7874 | 0.00925 | 7.0354 | 332.8574 | 115.4763 | 13.77317 | – |
| 2026 Apr 08 17:57 | 2026 Apr 08 10:36:02 | 65.7874 | 0.00925 | 7.0354 | 332.8574 | 115.4763 | 13.77317 | – |
| 2026 Apr 07 17:57 | 2026 Apr 02 02:24:49 | 65.7876 | 0.00918 | 8.0858 | 335.7859 | 115.4763 | 13.77317 | – |
| 2026 Apr 06 17:57 | 2026 Apr 02 02:24:49 | 65.7876 | 0.00918 | 8.0858 | 335.7859 | 115.4763 | 13.77317 | – |